createdAt,value
2022-10-22T00:01:39.982Z,9.07
2022-10-22T00:04:09.810Z,7.97
2022-10-22T00:09:10.592Z,7.80
2022-10-22T00:11:58.133Z,6.95
2022-10-22T00:14:44.810Z,6.85
2022-10-22T00:17:14.791Z,6.47
2022-10-22T00:19:44.580Z,6.03
2022-10-22T00:25:19.769Z,6.65
2022-10-22T00:30:36.366Z,6.38
2022-10-22T00:33:23.506Z,6.68
2022-10-22T00:36:10.238Z,6.32
2022-10-22T00:38:57.542Z,6.10
2022-10-22T00:41:28.625Z,5.50
2022-10-22T00:58:43.530Z,4.50
2022-10-22T01:01:18.318Z,4.97
2022-10-22T01:04:04.992Z,4.80
2022-10-22T01:06:52.925Z,5.40
2022-10-22T01:09:49.428Z,5.28
2022-10-22T01:12:28.328Z,7.72
2022-10-22T01:15:28.562Z,5.75
2022-10-22T01:18:21.542Z,4.88
2022-10-22T01:21:34.583Z,5.32
2022-10-22T01:24:30.926Z,6.82
2022-10-22T01:27:48.568Z,5.35
2022-10-22T01:30:38.741Z,5.20
2022-10-22T01:33:13.606Z,5.80
2022-10-22T01:35:47.037Z,6.50
2022-10-22T01:38:39.025Z,4.97
2022-10-22T01:41:09.727Z,4.32
2022-10-22T01:43:56.589Z,4.85
2022-10-22T01:46:47.032Z,7.05
2022-10-22T01:49:41.735Z,4.93
2022-10-22T01:52:22.263Z,4.43
2022-10-22T01:55:01.205Z,4.72
2022-10-22T01:57:43.765Z,4.65
2022-10-22T02:00:34.275Z,4.57
2022-10-22T02:03:27.980Z,4.90
2022-10-22T02:06:01.760Z,4.20
2022-10-22T02:08:35.723Z,7.47
2022-10-22T02:11:07.153Z,11.25
2022-10-22T02:13:42.195Z,5.45
2022-10-22T02:16:35.547Z,4.53
2022-10-22T02:19:16.137Z,4.38
2022-10-22T02:22:04.331Z,4.78
2022-10-22T02:24:36.942Z,4.40
2022-10-22T02:27:36.741Z,3.97
2022-10-22T02:30:28.779Z,3.65
2022-10-22T02:33:06.222Z,4.53
2022-10-22T02:35:46.476Z,4.35
2022-10-22T02:38:21.284Z,3.83
2022-10-22T02:41:09.379Z,4.53
2022-10-22T02:43:44.367Z,4.43
2022-10-22T02:46:31.840Z,3.90
2022-10-22T02:49:19.358Z,3.50
2022-10-22T02:51:57.381Z,4.40
2022-10-22T02:54:27.368Z,4.10
2022-10-22T02:56:57.687Z,4.50
2022-10-22T02:59:53.705Z,3.97
2022-10-22T03:02:43.354Z,4.30
2022-10-22T03:05:14.300Z,3.88
2022-10-22T03:08:08.427Z,4.28
2022-10-22T03:10:38.572Z,3.45
2022-10-22T03:13:27.431Z,3.67
2022-10-22T03:16:15.828Z,4.00
2022-10-22T03:19:04.804Z,4.07
2022-10-22T03:21:56.979Z,3.75
2022-10-22T03:24:37.759Z,4.32
2022-10-22T03:27:08.441Z,4.00
2022-10-22T03:29:41.371Z,3.72
2022-10-22T03:32:31.664Z,4.05
2022-10-22T03:35:04.044Z,3.35
2022-10-22T03:37:52.358Z,3.58
2022-10-22T03:40:24.625Z,3.05
2022-10-22T03:42:54.789Z,3.80
2022-10-22T03:45:41.776Z,4.00
2022-10-22T03:48:11.452Z,3.40
2022-10-22T03:50:41.509Z,3.33
2022-10-22T03:53:29.771Z,3.13
2022-10-22T03:56:01.384Z,3.53
2022-10-22T03:58:48.376Z,3.75
2022-10-22T04:01:18.659Z,3.33
2022-10-22T04:06:52.994Z,3.10
2022-10-22T04:09:22.798Z,3.20
2022-10-22T04:11:56.740Z,3.63
2022-10-22T04:29:30.871Z,3.85
2022-10-22T04:32:00.869Z,3.78
2022-10-22T04:34:48.428Z,3.80
2022-10-22T04:37:35.847Z,3.50
2022-10-22T04:40:06.842Z,4.25
2022-10-22T04:42:54.006Z,4.15
2022-10-22T04:45:42.532Z,4.05
2022-10-22T04:48:12.595Z,3.90
2022-10-22T04:50:43.065Z,4.00
2022-10-22T04:53:30.678Z,4.35
2022-10-22T04:56:10.198Z,4.07
2022-10-22T04:58:41.378Z,4.25
2022-10-22T05:01:32.217Z,3.97
2022-10-22T05:04:22.071Z,4.10
2022-10-22T05:06:52.614Z,3.97
2022-10-22T05:09:40.623Z,3.90
2022-10-22T05:12:35.284Z,3.75
2022-10-22T05:15:05.301Z,3.85
2022-10-22T05:17:42.320Z,3.80
2022-10-22T05:20:14.398Z,4.13
2022-10-22T05:25:23.190Z,3.63
2022-10-22T05:28:04.562Z,3.95
2022-10-22T05:30:36.426Z,3.67
2022-10-22T05:33:08.289Z,3.88
2022-10-22T05:35:39.188Z,4.03
2022-10-22T05:38:11.917Z,4.50
2022-10-22T05:40:41.844Z,3.60
2022-10-22T05:43:13.014Z,4.25
2022-10-22T05:45:49.452Z,3.75
2022-10-22T05:48:23.562Z,3.90
2022-10-22T05:50:55.467Z,4.25
2022-10-22T05:53:31.760Z,4.25
2022-10-22T05:56:04.165Z,3.92
2022-10-22T05:58:36.259Z,4.10
2022-10-22T06:01:08.889Z,3.90
2022-10-22T06:03:43.711Z,4.45
2022-10-22T06:06:30.057Z,4.15
2022-10-22T06:09:06.808Z,4.20
2022-10-22T06:11:37.085Z,4.10
2022-10-22T06:14:08.188Z,4.25
2022-10-22T06:16:40.974Z,4.35
2022-10-22T06:19:13.027Z,4.47
2022-10-22T06:21:43.300Z,4.57
2022-10-22T06:24:15.397Z,4.03
2022-10-22T06:26:46.126Z,4.05
2022-10-22T06:29:16.633Z,3.45
2022-10-22T06:31:47.248Z,3.50
2022-10-22T06:34:19.798Z,3.60
2022-10-22T06:36:51.910Z,3.67
2022-10-22T06:39:22.431Z,3.80
2022-10-22T06:41:53.415Z,3.67
2022-10-22T06:44:25.787Z,3.60
2022-10-22T06:46:58.548Z,3.08
2022-10-22T06:49:35.775Z,3.60
2022-10-22T06:52:15.178Z,3.30
2022-10-22T06:54:45.700Z,3.10
2022-10-22T06:57:17.000Z,3.47
2022-10-22T06:59:48.850Z,3.03
2022-10-22T07:02:18.921Z,3.00
2022-10-22T07:07:28.398Z,2.65
2022-10-22T07:09:59.293Z,2.45
2022-10-22T07:12:35.391Z,2.70
2022-10-22T07:15:11.614Z,2.60
2022-10-22T07:17:46.183Z,2.72
2022-10-22T07:20:24.253Z,2.88
2022-10-22T07:22:57.656Z,3.30
2022-10-22T07:25:28.207Z,2.45
2022-10-22T07:28:02.313Z,2.60
2022-10-22T07:30:34.330Z,2.50
2022-10-22T07:33:05.695Z,2.50
2022-10-22T07:35:38.199Z,2.60
2022-10-22T07:53:01.464Z,2.50
2022-10-22T07:55:31.764Z,2.50
2022-10-22T07:58:03.273Z,2.60
2022-10-22T08:00:33.466Z,2.35
2022-10-22T08:03:05.580Z,2.33
2022-10-22T08:05:50.118Z,2.45
2022-10-22T08:08:39.849Z,2.90
2022-10-22T08:11:28.459Z,2.55
2022-10-22T08:14:16.350Z,2.65
2022-10-22T08:17:10.851Z,2.30
2022-10-22T08:20:02.326Z,2.22
2022-10-22T08:22:51.490Z,2.47
2022-10-22T08:25:43.625Z,2.60
2022-10-22T08:28:37.775Z,2.30
2022-10-22T08:31:30.840Z,2.55
2022-10-22T08:34:19.236Z,2.50
2022-10-22T08:37:08.902Z,2.50
2022-10-22T08:39:57.266Z,2.47
2022-10-22T08:43:02.112Z,2.70
2022-10-22T08:45:58.318Z,2.80
2022-10-22T08:48:49.866Z,2.45
2022-10-22T08:51:40.770Z,2.60
2022-10-22T08:54:39.057Z,2.55
2022-10-22T08:57:55.981Z,2.50
2022-10-22T09:00:48.246Z,2.95
2022-10-22T09:03:47.491Z,2.30
2022-10-22T09:09:29.506Z,2.40
2022-10-22T09:12:20.562Z,2.00
2022-10-22T09:15:16.944Z,2.25
2022-10-22T09:18:24.230Z,2.10
2022-10-22T09:21:22.516Z,1.95
2022-10-22T09:24:15.503Z,2.17
2022-10-22T09:27:09.245Z,1.85
2022-10-22T09:29:57.425Z,2.20
2022-10-22T09:32:46.947Z,2.05
2022-10-22T09:35:37.243Z,2.00
2022-10-22T09:38:29.037Z,2.15
2022-10-22T09:41:18.108Z,2.30
2022-10-22T09:44:10.610Z,2.20
2022-10-22T09:46:58.489Z,2.00
2022-10-22T09:49:48.696Z,2.13
2022-10-22T09:52:36.639Z,2.08
2022-10-22T09:55:26.915Z,2.25
2022-10-22T09:58:16.173Z,2.63
2022-10-22T10:01:04.607Z,2.10
2022-10-22T10:03:52.480Z,2.05
2022-10-22T10:06:44.116Z,1.92
2022-10-22T10:09:37.133Z,2.00
2022-10-22T10:12:37.798Z,1.75
2022-10-22T10:15:30.973Z,2.03
2022-10-22T10:18:27.344Z,2.00
2022-10-22T10:21:25.758Z,2.92
2022-10-22T10:24:24.151Z,2.30
2022-10-22T10:27:14.903Z,2.10
2022-10-22T10:30:07.422Z,2.40
2022-10-22T10:33:12.559Z,2.03
2022-10-22T10:36:06.006Z,2.20
2022-10-22T10:39:02.077Z,1.77
2022-10-22T10:42:01.097Z,1.80
2022-10-22T10:45:09.810Z,1.80
2022-10-22T10:48:10.056Z,2.17
2022-10-22T10:51:07.318Z,1.70
2022-10-22T10:57:46.705Z,1.90
2022-10-22T11:00:42.600Z,2.50
2022-10-22T11:04:14.178Z,2.08
2022-10-22T11:07:11.517Z,1.75
2022-10-22T11:10:19.487Z,2.17
2022-10-22T11:32:33.469Z,1.80
2022-10-22T11:35:24.890Z,1.80
2022-10-22T11:38:17.957Z,2.08
2022-10-22T11:41:11.676Z,2.17
2022-10-22T11:44:09.888Z,2.00
2022-10-22T11:47:00.621Z,2.22
2022-10-22T11:49:59.897Z,1.67
2022-10-22T11:53:03.271Z,1.88
2022-10-22T11:55:53.012Z,2.10
2022-10-22T11:58:44.368Z,2.20
2022-10-22T12:01:43.834Z,2.00
2022-10-22T12:04:46.121Z,2.65
2022-10-22T12:07:52.144Z,2.30
2022-10-22T12:10:58.870Z,2.25
2022-10-22T12:14:19.325Z,2.00
2022-10-22T12:17:12.397Z,1.80
2022-10-22T12:20:04.938Z,1.83
2022-10-22T12:22:54.840Z,2.20
2022-10-22T12:25:42.589Z,2.00
2022-10-22T12:28:30.447Z,1.98
2022-10-22T12:31:18.518Z,1.73
2022-10-22T12:34:08.489Z,1.80
2022-10-22T12:36:57.287Z,1.98
2022-10-22T12:39:47.373Z,2.78
2022-10-22T12:42:35.440Z,2.15
2022-10-22T12:48:18.815Z,2.40
2022-10-22T12:51:10.018Z,1.73
2022-10-22T12:54:02.676Z,2.40
2022-10-22T12:56:54.811Z,2.05
2022-10-22T12:59:49.662Z,2.20
2022-10-22T13:02:38.663Z,2.17
2022-10-22T13:08:22.930Z,1.67
2022-10-22T13:11:12.716Z,1.60
2022-10-22T13:14:09.557Z,1.65
2022-10-22T13:17:09.469Z,1.95
2022-10-22T13:20:05.712Z,2.10
2022-10-22T13:23:01.455Z,2.22
2022-10-22T13:26:00.537Z,2.30
2022-10-22T13:28:55.881Z,2.20
2022-10-22T13:31:51.811Z,2.30
2022-10-22T13:34:40.619Z,2.15
2022-10-22T13:37:32.599Z,2.20
2022-10-22T13:40:23.790Z,1.90
2022-10-22T13:43:12.701Z,1.77
2022-10-22T13:46:02.323Z,1.95
2022-10-22T13:48:54.631Z,1.75
2022-10-22T13:51:43.574Z,2.00
2022-10-22T13:54:31.789Z,2.00
2022-10-22T14:00:09.287Z,1.80
2022-10-22T14:03:01.728Z,2.00
2022-10-22T14:05:52.209Z,2.00
2022-10-22T14:08:41.545Z,1.80
2022-10-22T14:11:31.532Z,2.33
2022-10-22T14:14:19.684Z,2.33
2022-10-22T14:17:11.290Z,2.35
2022-10-22T14:19:59.250Z,2.40
2022-10-22T14:22:49.302Z,2.30
2022-10-22T14:25:37.392Z,2.33
2022-10-22T14:31:14.460Z,2.15
2022-10-22T14:34:02.775Z,2.55
2022-10-22T14:36:52.169Z,2.50
2022-10-22T14:39:41.824Z,2.30
2022-10-22T14:42:31.323Z,2.40
2022-10-22T14:45:21.381Z,2.50
2022-10-22T14:48:09.227Z,2.30
2022-10-22T14:50:57.965Z,2.40
2022-10-22T14:56:34.871Z,2.40
2022-10-22T14:59:22.951Z,2.50
